createdAt,value
2023-04-13T00:01:16.979Z,98794.22
2023-04-13T00:03:46.219Z,98792.09
2023-04-13T00:06:13.109Z,98792.97
2023-04-13T00:08:42.897Z,98785.19
2023-04-13T00:11:10.308Z,98781.34
2023-04-13T00:13:41.767Z,98780.66
2023-04-13T00:16:10.347Z,98780.78
2023-04-13T00:18:37.219Z,98782.09
2023-04-13T00:21:04.132Z,98771.97
2023-04-13T00:23:32.130Z,98781.66
2023-04-13T00:26:01.646Z,98781.28
2023-04-13T00:28:29.821Z,98784.09
2023-04-13T00:30:59.600Z,98788.94
2023-04-13T00:33:26.739Z,98790.94
2023-04-13T00:35:53.579Z,98789.81
2023-04-13T00:38:20.330Z,98791.81
2023-04-13T00:40:48.155Z,98793.03
2023-04-13T00:43:15.043Z,98798.00
2023-04-13T00:45:43.724Z,98794.28
2023-04-13T00:48:13.747Z,98790.25
2023-04-13T00:50:41.913Z,98792.91
2023-04-13T00:53:13.351Z,98783.13
2023-04-13T00:55:42.703Z,98785.78
2023-04-13T00:58:10.179Z,98774.09
2023-04-13T01:00:43.242Z,98780.91
2023-04-13T01:03:10.635Z,98778.56
2023-04-13T01:05:53.762Z,98790.16
2023-04-13T01:08:53.330Z,98775.22
2023-04-13T01:11:40.144Z,98781.28
2023-04-13T01:14:19.083Z,98778.56
2023-04-13T01:16:59.294Z,98768.53
2023-04-13T01:19:42.687Z,98764.84
2023-04-13T01:22:14.465Z,98771.03
2023-04-13T01:24:56.809Z,98772.59
2023-04-13T01:27:51.811Z,98773.16
2023-04-13T01:30:26.303Z,98768.03
2023-04-13T01:32:58.215Z,98777.03
2023-04-13T01:35:27.085Z,98774.44
2023-04-13T01:37:55.815Z,98771.41
2023-04-13T01:40:30.934Z,98774.91
2023-04-13T01:42:58.642Z,98771.84
2023-04-13T01:45:53.688Z,98765.88
2023-04-13T01:48:33.377Z,98768.72
2023-04-13T01:51:30.543Z,98765.63
2023-04-13T01:54:23.190Z,98765.19
2023-04-13T01:56:51.645Z,98768.66
2023-04-13T01:59:19.456Z,98769.75
2023-04-13T02:01:46.605Z,98769.06
2023-04-13T02:04:14.188Z,98771.03
2023-04-13T02:06:43.421Z,98771.84
2023-04-13T02:09:11.154Z,98769.84
2023-04-13T02:11:38.171Z,98768.44
2023-04-13T02:14:06.478Z,98760.66
2023-04-13T02:16:33.480Z,98767.44
2023-04-13T02:19:00.722Z,98768.97
2023-04-13T02:21:29.706Z,98768.53
2023-04-13T02:23:57.418Z,98776.47
2023-04-13T02:26:26.254Z,98780.06
2023-04-13T02:28:53.314Z,98781.66
2023-04-13T02:31:20.639Z,98785.94
2023-04-13T02:33:47.799Z,98778.53
2023-04-13T02:36:17.530Z,98778.75
2023-04-13T02:38:57.648Z,98776.22
2023-04-13T02:41:32.864Z,98785.94
2023-04-13T02:44:00.196Z,98789.09
2023-04-13T02:46:32.806Z,98782.56
2023-04-13T02:49:11.701Z,98781.09
2023-04-13T02:51:46.266Z,98772.06
2023-04-13T02:54:13.532Z,98774.28
2023-04-13T02:56:45.449Z,98771.72
2023-04-13T02:59:12.273Z,98773.72
2023-04-13T03:01:39.862Z,98776.88
2023-04-13T03:04:09.921Z,98772.94
2023-04-13T03:06:36.947Z,98776.88
2023-04-13T03:09:04.797Z,98773.63
2023-04-13T03:11:42.496Z,98764.66
2023-04-13T03:14:21.286Z,98783.06
2023-04-13T03:16:52.380Z,98791.25
2023-04-13T03:19:23.319Z,98792.84
2023-04-13T03:21:50.274Z,98792.94
2023-04-13T03:24:20.902Z,98790.94
2023-04-13T03:26:48.806Z,98787.66
2023-04-13T03:29:21.854Z,98795.00
2023-04-13T03:31:48.761Z,98801.09
2023-04-13T03:34:16.515Z,98807.78
2023-04-13T03:36:45.975Z,98813.91
2023-04-13T03:39:14.348Z,98809.94
2023-04-13T03:41:41.199Z,98813.25
2023-04-13T03:44:10.074Z,98808.94
2023-04-13T03:46:38.720Z,98815.69
2023-04-13T03:49:16.913Z,98817.72
2023-04-13T03:51:43.765Z,98814.44
2023-04-13T03:54:10.992Z,98822.72
2023-04-13T03:56:37.961Z,98821.41
2023-04-13T03:59:11.087Z,98830.44
2023-04-13T04:02:40.735Z,98835.19
2023-04-13T04:05:11.657Z,98844.78
2023-04-13T04:07:40.104Z,98836.59
2023-04-13T04:10:08.087Z,98836.69
2023-04-13T04:12:35.013Z,98830.06
2023-04-13T04:15:01.768Z,98830.66
2023-04-13T04:17:31.984Z,98836.06
2023-04-13T04:19:58.877Z,98847.81
2023-04-13T04:22:30.229Z,98841.94
2023-04-13T04:25:00.147Z,98850.88
2023-04-13T04:27:27.907Z,98853.13
2023-04-13T04:30:02.794Z,98850.53
2023-04-13T04:32:34.272Z,98852.44
2023-04-13T04:35:05.170Z,98853.59
2023-04-13T04:37:37.676Z,98857.53
2023-04-13T04:40:13.045Z,98856.53
2023-04-13T04:42:41.429Z,98854.06
2023-04-13T04:45:15.250Z,98863.97
2023-04-13T04:47:45.462Z,98861.94
2023-04-13T04:50:19.773Z,98866.31
2023-04-13T04:52:52.115Z,98869.28
2023-04-13T04:55:22.141Z,98871.63
2023-04-13T04:57:50.012Z,98875.03
2023-04-13T05:00:18.733Z,98881.00
2023-04-13T05:03:01.017Z,98887.44
2023-04-13T05:05:30.754Z,98896.47
2023-04-13T05:08:01.637Z,98891.75
2023-04-13T05:10:29.712Z,98884.72
2023-04-13T05:13:29.314Z,98891.13
2023-04-13T05:16:16.441Z,98890.44
2023-04-13T05:18:47.899Z,98890.34
2023-04-13T05:21:33.317Z,98889.94
2023-04-13T05:24:01.775Z,98892.44
2023-04-13T05:26:30.793Z,98895.00
2023-04-13T05:28:58.637Z,98894.06
2023-04-13T05:31:28.864Z,98893.88
2023-04-13T05:33:57.312Z,98893.88
2023-04-13T05:36:24.182Z,98902.63
2023-04-13T05:38:51.699Z,98910.22
2023-04-13T05:41:23.108Z,98912.34
2023-04-13T05:43:49.841Z,98907.94
2023-04-13T05:46:17.007Z,98910.09
2023-04-13T05:48:46.120Z,98905.22
2023-04-13T05:51:15.655Z,98905.97
2023-04-13T05:53:45.574Z,98905.72
2023-04-13T05:56:13.108Z,98904.13
2023-04-13T05:58:40.320Z,98910.09
2023-04-13T06:01:24.624Z,98907.44
2023-04-13T06:03:53.687Z,98899.69
2023-04-13T06:06:21.295Z,98900.56
2023-04-13T06:08:48.551Z,98893.22
2023-04-13T06:11:17.656Z,98898.78
2023-04-13T06:13:44.692Z,98898.66
2023-04-13T06:16:11.537Z,98899.09
2023-04-13T06:18:38.414Z,98898.09
2023-04-13T06:21:06.341Z,98892.88
2023-04-13T06:23:33.191Z,98890.44
2023-04-13T06:26:05.632Z,98893.50
2023-04-13T06:28:59.747Z,98890.50
2023-04-13T06:31:28.063Z,98888.28
2023-04-13T06:33:58.501Z,98900.00
2023-04-13T06:36:31.312Z,98899.16
2023-04-13T06:38:59.739Z,98901.19
2023-04-13T06:41:27.430Z,98906.50
2023-04-13T06:44:10.666Z,98896.38
2023-04-13T06:46:47.679Z,98903.53
2023-04-13T06:49:14.609Z,98894.03
2023-04-13T06:51:43.474Z,98899.69
2023-04-13T06:54:10.722Z,98890.38
2023-04-13T06:56:42.900Z,98900.50
2023-04-13T06:59:09.641Z,98900.31
2023-04-13T07:01:37.064Z,98905.25
2023-04-13T07:04:07.001Z,98913.84
2023-04-13T07:06:34.418Z,98907.16
2023-04-13T07:09:03.226Z,98914.41
2023-04-13T07:11:31.841Z,98912.34
2023-04-13T07:14:00.337Z,98911.44
2023-04-13T07:16:27.422Z,98915.19
2023-04-13T07:18:54.269Z,98909.19
2023-04-13T07:21:21.830Z,98914.63
2023-04-13T07:24:00.125Z,98919.59
2023-04-13T07:26:28.493Z,98918.34
2023-04-13T07:28:56.576Z,98920.84
2023-04-13T07:31:28.027Z,98926.13
2023-04-13T07:33:56.037Z,98911.13
2023-04-13T07:36:31.324Z,98931.66
2023-04-13T07:39:04.148Z,98921.94
2023-04-13T07:41:32.576Z,98924.53
2023-04-13T07:44:05.378Z,98924.19
2023-04-13T07:46:33.154Z,98921.50
2023-04-13T07:49:00.824Z,98922.84
2023-04-13T07:51:32.487Z,98929.63
2023-04-13T07:54:04.617Z,98930.75
2023-04-13T07:56:36.435Z,98933.56
2023-04-13T07:59:05.734Z,98931.78
2023-04-13T08:01:35.032Z,98927.69
2023-04-13T08:04:03.258Z,98927.72
2023-04-13T08:06:31.913Z,98933.38
2023-04-13T08:09:01.058Z,98937.78
2023-04-13T08:11:28.134Z,98933.13
2023-04-13T08:14:04.246Z,98936.84
2023-04-13T08:16:34.438Z,98938.91
2023-04-13T08:19:04.226Z,98936.19
2023-04-13T08:21:34.583Z,98957.66
2023-04-13T08:24:01.515Z,98971.28
2023-04-13T08:26:30.848Z,98974.00
2023-04-13T08:29:01.750Z,98976.13
2023-04-13T08:31:28.940Z,98973.84
2023-04-13T08:34:00.819Z,98977.03
2023-04-13T08:36:27.858Z,98980.94
2023-04-13T08:39:02.798Z,98971.72
2023-04-13T08:41:35.088Z,98973.06
2023-04-13T08:44:05.812Z,98977.00
2023-04-13T08:46:37.879Z,98975.13
2023-04-13T08:49:08.148Z,98975.19
2023-04-13T08:51:52.165Z,98977.41
2023-04-13T08:54:21.631Z,98977.50
2023-04-13T08:56:58.781Z,98984.34
2023-04-13T08:59:30.066Z,98982.97
2023-04-13T09:02:01.951Z,98997.81
2023-04-13T09:04:39.458Z,98990.34
2023-04-13T09:07:08.281Z,98989.28
2023-04-13T09:09:42.781Z,98994.78
2023-04-13T09:12:10.228Z,98991.41
2023-04-13T09:14:38.564Z,98987.38
2023-04-13T09:17:06.982Z,98987.22
2023-04-13T09:19:38.164Z,98987.44
2023-04-13T09:22:15.248Z,98987.00
2023-04-13T09:24:42.641Z,98992.00
2023-04-13T09:27:25.073Z,98984.22
2023-04-13T09:29:54.448Z,98989.31
2023-04-13T09:32:26.122Z,98981.88
2023-04-13T09:35:05.602Z,98991.94
2023-04-13T09:37:33.036Z,98992.28
2023-04-13T09:40:13.521Z,98999.59
2023-04-13T09:42:41.941Z,98999.03
2023-04-13T09:45:09.667Z,98997.22
2023-04-13T09:47:38.887Z,98999.84
2023-04-13T09:50:16.087Z,99001.78
2023-04-13T09:52:43.981Z,98997.38
2023-04-13T09:55:17.716Z,98995.22
2023-04-13T09:57:44.692Z,98999.84
2023-04-13T10:00:19.367Z,98990.16
2023-04-13T10:02:50.863Z,99003.09
2023-04-13T10:05:19.591Z,98997.34
2023-04-13T10:07:47.448Z,98982.31
2023-04-13T10:10:14.326Z,98985.94
2023-04-13T10:12:49.621Z,98990.22
2023-04-13T10:15:44.662Z,98980.28
2023-04-13T10:18:47.369Z,98981.88
2023-04-13T10:21:15.204Z,98989.03
2023-04-13T10:23:42.236Z,98984.16
2023-04-13T10:26:09.718Z,98985.28
2023-04-13T10:28:47.614Z,98985.03
2023-04-13T10:31:14.990Z,98983.63
2023-04-13T10:33:51.615Z,98983.72
2023-04-13T10:36:18.909Z,98989.47
2023-04-13T10:38:46.930Z,98989.03
2023-04-13T10:41:26.439Z,98984.56
2023-04-13T10:44:03.428Z,98976.03
2023-04-13T10:46:30.861Z,98980.63
2023-04-13T10:49:00.138Z,98982.09
2023-04-13T10:51:38.369Z,98983.31
2023-04-13T10:54:06.609Z,98980.16
2023-04-13T10:56:33.982Z,98975.44
2023-04-13T10:59:01.114Z,98961.06
2023-04-13T11:01:30.695Z,98981.06
2023-04-13T11:04:08.971Z,98967.59
2023-04-13T11:06:41.273Z,98971.50
2023-04-13T11:09:13.126Z,98963.00
2023-04-13T11:11:43.200Z,98970.53
2023-04-13T11:14:09.991Z,98956.66
2023-04-13T11:16:46.149Z,98959.00
2023-04-13T11:19:13.399Z,98961.44
2023-04-13T11:21:41.252Z,98955.03
2023-04-13T11:24:10.106Z,98952.81
2023-04-13T11:26:38.917Z,98953.53
2023-04-13T11:29:21.133Z,98953.97
2023-04-13T11:31:48.423Z,98959.78
2023-04-13T11:34:28.840Z,98954.75
2023-04-13T11:37:00.784Z,98947.78
2023-04-13T11:39:29.305Z,98956.19
2023-04-13T11:42:04.175Z,98951.47
2023-04-13T11:44:31.189Z,98942.03
2023-04-13T11:46:57.929Z,98950.53
2023-04-13T11:49:25.075Z,98948.97
2023-04-13T11:51:53.401Z,98959.28
2023-04-13T11:54:20.479Z,98949.25
2023-04-13T11:56:49.119Z,98949.41
2023-04-13T11:59:20.528Z,98953.13
2023-04-13T12:02:01.896Z,98950.81
2023-04-13T12:04:41.560Z,98949.84
2023-04-13T12:07:14.042Z,98956.84
2023-04-13T12:15:15.405Z,98962.91
2023-04-13T12:18:23.843Z,98956.19
2023-04-13T12:20:55.582Z,98950.81
2023-04-13T12:23:27.987Z,98949.47
2023-04-13T12:26:31.973Z,98951.06
2023-04-13T12:29:03.973Z,98944.63
2023-04-13T12:31:41.798Z,98949.88
2023-04-13T12:34:09.023Z,98954.41
2023-04-13T12:36:36.815Z,98950.16
2023-04-13T12:39:04.705Z,98948.13
2023-04-13T12:41:37.512Z,98943.56
2023-04-13T12:44:06.722Z,98949.31
2023-04-13T12:46:33.493Z,98946.59
2023-04-13T12:49:00.625Z,98950.09
2023-04-13T12:51:27.682Z,98947.69
2023-04-13T12:53:54.535Z,98958.38
2023-04-13T12:56:40.626Z,98964.25
2023-04-13T12:59:10.989Z,98970.00
2023-04-13T13:01:38.203Z,98971.66
2023-04-13T13:04:06.508Z,98973.25
2023-04-13T13:06:34.493Z,98962.56
2023-04-13T13:09:07.099Z,98971.63
2023-04-13T13:11:34.229Z,98974.88
2023-04-13T13:14:01.055Z,98971.69
2023-04-13T13:16:28.723Z,98970.56
2023-04-13T13:18:59.307Z,98975.50
2023-04-13T13:21:30.236Z,98960.72
2023-04-13T13:23:57.053Z,98960.94
2023-04-13T13:26:30.575Z,98953.47
2023-04-13T13:29:07.562Z,98963.09
2023-04-13T13:31:57.450Z,98967.94
2023-04-13T13:34:25.479Z,98960.03
2023-04-13T13:36:55.626Z,98955.97
2023-04-13T13:39:27.119Z,98957.66
2023-04-13T13:41:53.946Z,98957.38
2023-04-13T13:44:23.374Z,98959.88
2023-04-13T13:46:50.261Z,98957.38
2023-04-13T13:49:22.564Z,98971.38
2023-04-13T13:51:53.143Z,98975.84
2023-04-13T13:54:25.832Z,98971.78
2023-04-13T13:56:55.016Z,98972.69
2023-04-13T13:59:21.879Z,98969.38
2023-04-13T14:01:49.332Z,98980.19
2023-04-13T14:04:16.221Z,98963.16
2023-04-13T14:06:43.010Z,98966.00
2023-04-13T14:09:09.757Z,98962.00
2023-04-13T14:11:39.109Z,98964.84
2023-04-13T14:14:18.458Z,98957.81
2023-04-13T14:16:51.629Z,98956.31
2023-04-13T14:19:20.074Z,98955.63
2023-04-13T14:21:49.028Z,98953.78
2023-04-13T14:24:15.915Z,98954.59
2023-04-13T14:26:42.778Z,98955.16
2023-04-13T14:29:12.048Z,98952.53
2023-04-13T14:31:38.933Z,98954.22
2023-04-13T14:34:06.247Z,98956.41
2023-04-13T14:36:33.203Z,98959.47
2023-04-13T14:39:01.098Z,98949.50
2023-04-13T14:41:29.748Z,98950.97
2023-04-13T14:43:56.927Z,98961.69
2023-04-13T14:46:26.783Z,98961.81
2023-04-13T14:48:57.996Z,98970.38
2023-04-13T14:51:24.949Z,98962.13
2023-04-13T14:53:56.308Z,98968.94
2023-04-13T14:56:24.040Z,98970.81
2023-04-13T14:58:52.096Z,98958.28
2023-04-13T15:01:20.726Z,98965.66
2023-04-13T15:03:48.175Z,98960.34
2023-04-13T15:06:15.427Z,98961.03
2023-04-13T15:08:44.600Z,98959.22
2023-04-13T15:11:11.467Z,98955.03
2023-04-13T15:13:38.578Z,98946.06
2023-04-13T15:16:07.813Z,98951.47
2023-04-13T15:18:35.106Z,98947.75
2023-04-13T15:21:05.207Z,98948.66
2023-04-13T15:23:33.331Z,98953.53
2023-04-13T15:26:03.316Z,98955.13
2023-04-13T15:28:33.483Z,98950.19
2023-04-13T15:31:00.291Z,98951.56
2023-04-13T15:33:28.380Z,98949.91
2023-04-13T15:35:55.522Z,98940.13
2023-04-13T15:38:22.624Z,98959.06
2023-04-13T15:40:49.420Z,98956.00
2023-04-13T15:43:16.222Z,98962.09
2023-04-13T15:45:43.013Z,98960.28
2023-04-13T15:48:10.315Z,98962.22
2023-04-13T15:50:37.082Z,98957.91
2023-04-13T15:53:03.813Z,98971.94
2023-04-13T15:55:30.633Z,98963.38
2023-04-13T15:57:57.555Z,98963.56
2023-04-13T16:00:24.921Z,98957.59
2023-04-13T16:02:51.893Z,98955.50
2023-04-13T16:05:19.663Z,98952.22
2023-04-13T16:07:46.441Z,98959.13
2023-04-13T16:10:17.127Z,98957.66
2023-04-13T16:12:45.438Z,98953.44
2023-04-13T16:15:12.887Z,98956.97
2023-04-13T16:17:43.862Z,98952.50
2023-04-13T16:20:19.473Z,98943.06
2023-04-13T16:22:53.476Z,98947.03
2023-04-13T16:25:20.463Z,98938.53
2023-04-13T16:27:48.466Z,98936.34
2023-04-13T16:30:17.763Z,98934.66
2023-04-13T16:32:45.747Z,98940.63
2023-04-13T16:35:13.059Z,98933.13
2023-04-13T16:37:43.553Z,98932.84
2023-04-13T16:40:11.186Z,98933.81
2023-04-13T16:42:40.764Z,98932.22
2023-04-13T16:45:11.467Z,98941.56
2023-04-13T16:47:40.023Z,98945.91
2023-04-13T16:50:08.376Z,98955.97
2023-04-13T16:52:35.929Z,98951.91
2023-04-13T16:55:04.239Z,98955.38
2023-04-13T16:57:32.575Z,98961.38
2023-04-13T17:00:06.744Z,98951.59
2023-04-13T17:02:34.948Z,98956.72
2023-04-13T17:05:02.033Z,98960.09
2023-04-13T17:07:29.846Z,98964.84
2023-04-13T17:09:56.665Z,98968.44
2023-04-13T17:12:23.763Z,98970.03
2023-04-13T17:14:50.728Z,98975.59
2023-04-13T17:17:17.762Z,98976.72
2023-04-13T17:19:44.603Z,98971.16
2023-04-13T17:22:11.808Z,98982.41
2023-04-13T17:24:38.679Z,98979.25
2023-04-13T17:27:06.416Z,98972.50
2023-04-13T17:29:36.316Z,98968.44
2023-04-13T17:32:03.803Z,98986.38
2023-04-13T17:34:31.771Z,98980.59
2023-04-13T17:36:59.071Z,98992.88
2023-04-13T17:39:26.401Z,98989.88
2023-04-13T17:41:53.233Z,98994.53
2023-04-13T17:44:19.999Z,98989.72
2023-04-13T17:46:50.648Z,98991.50
2023-04-13T17:49:17.494Z,98988.06
2023-04-13T17:51:48.190Z,98981.56
2023-04-13T17:54:15.398Z,98991.31
2023-04-13T17:56:42.247Z,98991.28
2023-04-13T17:59:11.766Z,98994.44
2023-04-13T18:01:38.779Z,98997.81
2023-04-13T18:04:05.741Z,99002.38
2023-04-13T18:06:32.665Z,99005.03
2023-04-13T18:08:59.688Z,99001.94
2023-04-13T18:11:26.573Z,99001.59
2023-04-13T18:13:53.478Z,99010.38
2023-04-13T18:16:20.554Z,99010.38
2023-04-13T18:18:47.485Z,99009.63
2023-04-13T18:21:16.329Z,99017.09
2023-04-13T18:23:43.057Z,99010.81
2023-04-13T18:26:09.861Z,99015.47
2023-04-13T18:28:37.013Z,99016.72
2023-04-13T18:31:04.444Z,99014.59
2023-04-13T18:33:31.863Z,99013.66
2023-04-13T18:35:58.855Z,99008.50
2023-04-13T18:38:25.926Z,99015.09
2023-04-13T18:40:52.974Z,99004.56
2023-04-13T18:43:20.121Z,99022.47
2023-04-13T18:45:47.121Z,99011.91
2023-04-13T18:48:14.049Z,99032.41
2023-04-13T18:50:40.905Z,99017.69
2023-04-13T18:53:07.838Z,99018.47
2023-04-13T18:55:35.214Z,99016.47
2023-04-13T18:58:02.133Z,99016.69
2023-04-13T19:00:29.255Z,99010.94
2023-04-13T19:02:57.563Z,99007.34
2023-04-13T19:05:24.657Z,99001.75
2023-04-13T19:07:58.549Z,98996.16
2023-04-13T19:10:28.814Z,98982.63
2023-04-13T19:12:56.338Z,98970.91
2023-04-13T19:15:23.944Z,98961.50
2023-04-13T19:17:52.254Z,98956.75
2023-04-13T19:20:21.585Z,98955.53
2023-04-13T19:22:50.792Z,98952.16
2023-04-13T19:25:17.806Z,98947.31
2023-04-13T19:27:45.640Z,98943.34
2023-04-13T19:30:14.819Z,98945.97
2023-04-13T19:32:44.778Z,98952.72
2023-04-13T19:35:12.727Z,98952.09
2023-04-13T19:37:40.671Z,98953.59
2023-04-13T19:40:14.812Z,98949.88
2023-04-13T19:42:46.250Z,98943.47
2023-04-13T19:45:14.967Z,98951.00
2023-04-13T19:47:42.409Z,98951.41
2023-04-13T19:50:12.179Z,98951.75
2023-04-13T19:52:41.494Z,98948.94
2023-04-13T19:55:12.982Z,98943.97
2023-04-13T19:57:42.464Z,98944.22
2023-04-13T20:00:20.431Z,98940.97
2023-04-13T20:02:50.880Z,98932.19
2023-04-13T20:05:19.301Z,98926.75
2023-04-13T20:07:46.133Z,98904.16
2023-04-13T20:10:13.206Z,98912.66
2023-04-13T20:12:40.338Z,98900.88
2023-04-13T20:15:07.909Z,98903.75
2023-04-13T20:17:34.883Z,98888.19
2023-04-13T20:20:02.171Z,98872.19
2023-04-13T20:22:30.394Z,98872.91
2023-04-13T20:24:57.211Z,98869.00
2023-04-13T20:27:24.024Z,98865.72
2023-04-13T20:29:55.072Z,98856.94
2023-04-13T20:32:25.644Z,98860.13
2023-04-13T20:34:54.275Z,98861.72
2023-04-13T20:37:21.440Z,98872.41
2023-04-13T20:39:52.081Z,98868.03
2023-04-13T20:42:22.576Z,98866.44
2023-04-13T20:45:10.583Z,98860.81
2023-04-13T20:47:42.366Z,98858.22
2023-04-13T20:50:10.889Z,98856.06
2023-04-13T20:52:41.766Z,98849.34
2023-04-13T20:55:11.801Z,98844.38
2023-04-13T20:57:42.050Z,98847.03
2023-04-13T21:00:15.533Z,98843.44
2023-04-13T21:02:43.208Z,98839.63
2023-04-13T21:05:10.665Z,98841.72
2023-04-13T21:07:38.126Z,98838.72
2023-04-13T21:10:05.360Z,98842.31
2023-04-13T21:12:32.217Z,98840.72
2023-04-13T21:15:01.538Z,98834.38
2023-04-13T21:17:30.403Z,98841.59
2023-04-13T21:19:57.257Z,98842.38
2023-04-13T21:22:23.981Z,98835.63
2023-04-13T21:24:50.758Z,98836.28
2023-04-13T21:27:18.787Z,98838.44
2023-04-13T21:29:51.096Z,98844.84
2023-04-13T21:32:18.019Z,98839.28
2023-04-13T21:34:44.890Z,98844.47
2023-04-13T21:37:14.129Z,98840.16
2023-04-13T21:39:40.937Z,98833.44
2023-04-13T21:42:09.137Z,98829.81
2023-04-13T21:44:36.032Z,98822.50
2023-04-13T21:47:06.243Z,98828.50
2023-04-13T21:49:32.975Z,98833.13
2023-04-13T21:51:59.750Z,98841.13
2023-04-13T21:54:27.540Z,98840.50
2023-04-13T21:56:54.337Z,98838.72
2023-04-13T21:59:21.268Z,98841.13
2023-04-13T22:01:48.211Z,98833.34
2023-04-13T22:04:15.440Z,98822.00
2023-04-13T22:06:42.305Z,98825.59
2023-04-13T22:09:09.076Z,98816.66
2023-04-13T22:11:35.821Z,98810.25
2023-04-13T22:14:02.580Z,98812.13
2023-04-13T22:16:29.883Z,98795.44
2023-04-13T22:18:56.998Z,98797.88
2023-04-13T22:21:23.832Z,98794.91
2023-04-13T22:23:50.704Z,98794.81
2023-04-13T22:26:17.436Z,98781.66
2023-04-13T22:28:44.278Z,98786.84
2023-04-13T22:31:12.126Z,98794.38
2023-04-13T22:33:40.470Z,98803.09
2023-04-13T22:36:16.965Z,98802.06
2023-04-13T22:38:43.728Z,98806.38
2023-04-13T22:41:10.675Z,98799.00
2023-04-13T22:43:37.489Z,98791.78
2023-04-13T22:46:04.281Z,98790.53
2023-04-13T22:48:31.385Z,98794.94
2023-04-13T22:51:00.662Z,98779.41
2023-04-13T22:53:28.062Z,98789.53
2023-04-13T22:55:55.213Z,98773.44
2023-04-13T22:58:22.074Z,98760.50
2023-04-13T23:00:48.865Z,98746.00
2023-04-13T23:03:15.803Z,98735.94
2023-04-13T23:05:42.676Z,98727.25
2023-04-13T23:08:10.469Z,98725.75
2023-04-13T23:10:37.442Z,98715.00
2023-04-13T23:13:04.787Z,98711.84
2023-04-13T23:15:31.562Z,98694.34
2023-04-13T23:17:58.527Z,98690.84
2023-04-13T23:20:27.300Z,98689.34
2023-04-13T23:22:54.055Z,98694.44
2023-04-13T23:25:20.735Z,98690.19
2023-04-13T23:27:47.484Z,98686.56
2023-04-13T23:30:14.445Z,98682.88
2023-04-13T23:32:41.294Z,98677.63
2023-04-13T23:35:08.705Z,98671.44
2023-04-13T23:37:47.715Z,98659.09
2023-04-13T23:40:14.540Z,98657.19
2023-04-13T23:42:41.753Z,98653.59
2023-04-13T23:45:08.924Z,98651.47
2023-04-13T23:47:36.075Z,98651.47
2023-04-13T23:50:02.965Z,98641.47
2023-04-13T23:52:29.820Z,98644.75
2023-04-13T23:54:57.181Z,98635.78
2023-04-13T23:57:24.084Z,98623.53
2023-04-13T23:59:57.005Z,98624.66
